KFAT/FAT METAR and TAF weather

Enter ICAO airport designator
Station Type Date Time Source
KFAT METAR 2020/09/18 06:53 UTC NOAA

KFAT 180653Z 33004KT 4SM FU HZ BKN041 OVC120 26/14 A2992 RMK AO2 SLP129 T02610139


Station Type Date Time Source
KFAT Decoded METAR 2020/09/18 06:53 UTC NOAA

FRESNO AIR TERMINAL, CA, United States (KFAT) 36-47N 119-43W 104M
Sep 18, 2020 - 02:53 AM EDT / 2020.09.18 0653 UTC
Wind: from the NNW (330 degrees) at 5 MPH (4 KT):0
Visibility: 4 mile(s):0
Sky conditions: overcast
Weather: smoke; haze
Temperature: 79.0 F (26.1 C)
Dew Point: 57.0 F (13.9 C)
Relative Humidity: 46%
Pressure (altimeter): 29.92 in. Hg (1013 hPa)
ob: KFAT 180653Z 33004KT 4SM FU HZ BKN041 OVC120 26/14 A2992 RMK AO2 SLP129 T02610139
cycle: 7

Station Type Date Time Source
KFAT TAF 2020/09/18 06:22 UTC NOAA

TAF KFAT 180520Z 1806/1906 30005KT 4SM FU HZ SCT040 OVC130
FM181000 31010KT 4SM HZ SCT040 OVC130
FM190100 31012KT 6SM HZ BKN150

Example: see airport list